Time;durP1;ratioP1;P1;durP2;ratioP2;P2;SDS_P1;SDS_P2;PMS_P1;PMS_P2;Temp;Humidity;BMP_temperature;BMP_pressure;BME280_temperature;BME280_humidity;BME280_pressure;Samples;Min_cycle;Max_cycle;Signal;HPM_P1;HPM_P2
2022/10/23 00:01:26;;;;;;;10.25;5.53;;;11.70;99.90;;;;;;4976049;28;20216;-88
2022/10/23 00:03:54;;;;;;;9.35;4.40;;;11.80;99.90;;;;;;4976518;28;20201;-87
2022/10/23 00:06:20;;;;;;;9.13;5.70;;;11.80;99.90;;;;;;4976117;28;20174;-87
2022/10/23 00:08:47;;;;;;;8.30;3.95;;;11.80;99.90;;;;;;4976666;28;20188;-87
2022/10/23 00:11:16;;;;;;;7.50;5.15;;;11.80;99.90;;;;;;4976385;28;20216;-87
2022/10/23 00:13:42;;;;;;;6.95;3.83;;;11.80;99.90;;;;;;4993420;28;20177;-87
2022/10/23 00:16:08;;;;;;;7.78;3.85;;;11.90;99.90;;;;;;4960054;28;20189;-86
2022/10/23 00:18:35;;;;;;;11.18;4.43;;;11.90;99.90;;;;;;4993555;28;20199;-87
2022/10/23 00:21:01;;;;;;;8.80;4.10;;;12.00;99.90;;;;;;4976552;28;20209;-87
2022/10/23 00:23:27;;;;;;;9.57;5.07;;;12.00;99.90;;;;;;4976133;28;20635;-87
2022/10/23 00:25:52;;;;;;;8.68;4.25;;;12.00;99.90;;;;;;4944429;28;20204;-87
2022/10/23 00:28:18;;;;;;;8.68;5.22;;;12.10;99.90;;;;;;4993237;28;20241;-87
2022/10/23 00:30:43;;;;;;;7.80;4.60;;;12.00;99.90;;;;;;4943907;28;20196;-87
2022/10/23 00:33:10;;;;;;;5.70;4.00;;;12.10;99.90;;;;;;4944223;28;20185;-86
2022/10/23 00:35:42;;;;;;;9.23;4.90;;;12.10;99.90;;;;;;4975780;28;20202;-86
2022/10/23 00:38:09;;;;;;;9.38;5.15;;;12.20;99.90;;;;;;4976420;28;20192;-87
2022/10/23 00:40:35;;;;;;;11.90;5.25;;;12.10;99.90;;;;;;4975930;28;20209;-86
2022/10/23 00:43:01;;;;;;;8.85;4.70;;;12.10;99.90;;;;;;4993644;28;20189;-87
2022/10/23 00:45:32;;;;;;;11.07;5.07;;;12.20;99.90;;;;;;4993018;28;20535;-88
2022/10/23 00:47:59;;;;;;;14.07;5.68;;;12.20;99.90;;;;;;4993619;28;20159;-87
2022/10/23 00:50:28;;;;;;;15.85;7.30;;;12.20;99.90;;;;;;4976131;28;20248;-88
2022/10/23 00:52:56;;;;;;;11.90;6.32;;;12.20;99.90;;;;;;4993359;28;20213;-87
2022/10/23 00:55:23;;;;;;;15.15;6.60;;;12.30;99.90;;;;;;4976073;28;20224;-87
2022/10/23 00:57:50;;;;;;;14.57;7.82;;;12.20;99.90;;;;;;4993464;28;20181;-87
2022/10/23 01:00:27;;;;;;;15.15;7.72;;;12.20;99.90;;;;;;4975853;28;20178;-87
2022/10/23 01:02:54;;;;;;;15.77;7.95;;;12.20;99.90;;;;;;4993276;28;20249;-87
2022/10/23 01:05:29;;;;;;;17.08;7.47;;;12.30;99.90;;;;;;4993408;28;20186;-87
2022/10/23 01:08:16;;;;;;;16.00;7.57;;;12.30;99.90;;;;;;4993515;28;20212;-87
2022/10/23 01:10:50;;;;;;;18.23;8.68;;;12.20;99.90;;;;;;4993033;28;20201;-88
2022/10/23 01:13:33;;;;;;;23.17;8.77;;;12.30;99.90;;;;;;4976052;28;20181;-87
2022/10/23 01:16:17;;;;;;;17.17;8.75;;;12.30;99.90;;;;;;4993178;28;20159;-88
2022/10/23 01:18:55;;;;;;;28.67;9.88;;;12.30;99.90;;;;;;4993130;28;20253;-87
2022/10/23 01:21:43;;;;;;;16.90;9.18;;;12.30;99.90;;;;;;4978622;28;20201;-87
2022/10/23 01:24:36;;;;;;;19.27;8.95;;;12.40;99.90;;;;;;4983473;28;20317;-87
2022/10/23 01:27:16;;;;;;;27.70;8.70;;;12.40;99.90;;;;;;4983260;28;20170;-88
2022/10/23 01:29:48;;;;;;;19.38;8.18;;;12.40;99.90;;;;;;4996547;28;20225;-87
2022/10/23 01:32:25;;;;;;;17.08;7.10;;;12.40;99.90;;;;;;4979545;28;20188;-88
2022/10/23 01:35:00;;;;;;;18.30;8.35;;;12.40;99.90;;;;;;4978984;28;20252;-87
2022/10/23 01:37:50;;;;;;;12.52;6.38;;;12.40;99.90;;;;;;4979482;28;20184;-87
2022/10/23 01:40:31;;;;;;;17.20;6.43;;;12.50;99.90;;;;;;4979309;28;20202;-87
2022/10/23 01:43:03;;;;;;;16.33;6.22;;;12.50;99.90;;;;;;4979620;28;20178;-87
2022/10/23 01:45:35;;;;;;;20.35;7.32;;;13.20;99.90;;;;;;4996227;28;20158;-87
2022/10/23 01:48:02;;;;;;;14.50;6.03;;;12.40;99.90;;;;;;4979088;28;20243;-88
2022/10/23 01:50:29;;;;;;;13.75;7.03;;;12.40;99.90;;;;;;4979148;28;20603;-87
2022/10/23 01:52:55;;;;;;;13.88;6.07;;;12.50;99.90;;;;;;4963078;28;20186;-87
2022/10/23 01:55:22;;;;;;;12.43;6.07;;;12.50;99.90;;;;;;4962957;28;20595;-88
2022/10/23 01:57:49;;;;;;;17.48;7.63;;;12.50;99.90;;;;;;4978566;28;20623;-87
2022/10/23 02:00:18;;;;;;;17.45;7.55;;;12.50;99.90;;;;;;4978945;28;20181;-87
2022/10/23 02:02:47;;;;;;;24.23;8.35;;;12.50;99.90;;;;;;4979070;28;20174;-89
2022/10/23 02:05:23;;;;;;;20.70;7.45;;;12.50;99.90;;;;;;4964423;28;20189;-87
2022/10/23 02:07:50;;;;;;;15.02;7.78;;;12.50;99.90;;;;;;4980659;28;20192;-88
2022/10/23 02:10:16;;;;;;;21.48;9.55;;;12.50;99.90;;;;;;4997520;28;20181;-87
2022/10/23 02:12:51;;;;;;;25.85;8.68;;;12.50;99.90;;;;;;4990478;28;20234;-85
2022/10/23 02:15:33;;;;;;;20.58;9.38;;;12.50;99.90;;;;;;5020197;28;20173;-87
2022/10/23 02:18:19;;;;;;;20.23;8.63;;;12.50;99.90;;;;;;5019882;28;20289;-87
2022/10/23 02:20:55;;;;;;;23.92;9.63;;;12.50;99.90;;;;;;5002660;28;20229;-88
2022/10/23 02:23:27;;;;;;;19.67;9.57;;;12.50;99.90;;;;;;5011418;28;20201;-88
2022/10/23 02:26:10;;;;;;;19.33;9.45;;;12.50;99.90;;;;;;4997936;28;20172;-87
2022/10/23 02:28:47;;;;;;;19.63;7.88;;;12.50;99.90;;;;;;5016371;28;20221;-88
2022/10/23 02:31:16;;;;;;;19.98;9.55;;;12.50;99.90;;;;;;5002667;28;20182;-86
2022/10/23 02:33:44;;;;;;;17.77;8.70;;;12.50;99.90;;;;;;5002544;28;20178;-90
2022/10/23 02:36:11;;;;;;;19.95;8.10;;;12.40;99.90;;;;;;5002673;28;20653;-88
2022/10/23 02:38:42;;;;;;;16.45;8.18;;;12.40;99.90;;;;;;4996667;28;20265;-88
2022/10/23 02:41:26;;;;;;;21.30;8.57;;;12.40;99.90;;;;;;4996003;28;20224;-88
2022/10/23 02:44:06;;;;;;;20.45;8.23;;;12.40;99.90;;;;;;4977602;28;20188;-87
2022/10/23 02:46:54;;;;;;;21.35;8.32;;;12.40;99.90;;;;;;4977977;28;20483;-87
2022/10/23 02:49:38;;;;;;;15.65;7.43;;;12.40;99.90;;;;;;4955878;28;20284;-87
2022/10/23 02:52:10;;;;;;;17.63;8.60;;;12.40;99.90;;;;;;4994999;28;20174;-87
2022/10/23 02:54:49;;;;;;;21.83;8.95;;;12.40;99.90;;;;;;4994925;28;20170;-87
2022/10/23 02:57:26;;;;;;;19.50;8.05;;;12.40;99.90;;;;;;4979008;28;20228;-87
2022/10/23 03:00:10;;;;;;;20.85;9.10;;;12.40;99.90;;;;;;4977494;28;20169;-87
2022/10/23 03:02:50;;;;;;;20.00;8.63;;;12.40;99.90;;;;;;4995116;28;20166;-87
2022/10/23 03:05:19;;;;;;;19.08;9.05;;;12.40;99.90;;;;;;4977172;28;20654;-88
2022/10/23 03:07:46;;;;;;;23.40;10.07;;;12.40;99.90;;;;;;4977290;28;20591;-88
2022/10/23 03:10:12;;;;;;;19.15;8.52;;;12.30;99.90;;;;;;4977354;28;20186;-87
2022/10/23 03:12:38;;;;;;;18.70;8.57;;;12.30;99.90;;;;;;4977063;28;20209;-87
2022/10/23 03:15:06;;;;;;;20.27;9.50;;;12.40;99.90;;;;;;4994130;28;20220;-88
2022/10/23 03:17:32;;;;;;;22.75;10.30;;;12.30;99.90;;;;;;4994908;28;20662;-88
2022/10/23 03:19:58;;;;;;;27.55;9.13;;;12.30;99.90;;;;;;4994589;28;20178;-87
2022/10/23 03:22:26;;;;;;;23.40;9.00;;;;;;;;;;4977410;28;20228;-88
2022/10/23 03:24:52;;;;;;;21.80;9.05;;;12.30;99.90;;;;;;4976915;28;20181;-88
2022/10/23 03:27:18;;;;;;;19.35;8.57;;;;;;;;;;4977881;28;20726;-87
2022/10/23 03:29:43;;;;;;;30.00;11.18;;;12.40;99.90;;;;;;4964505;28;20237;-89
2022/10/23 03:46:18;;;;;;;;;;;;;;;;;;;;;
2022/10/23 03:49:02;;;;;;;19.60;9.02;;;12.90;99.90;;;;;;4938318;28;20194;-94
2022/10/23 03:52:07;;;;;;;;;;;;;;;;;;;;;
2022/10/23 03:54:45;;;;;;;24.63;8.65;;;12.40;99.90;;;;;;4958413;28;20198;-93
2022/10/23 04:04:33;;;;;;;19.55;8.63;;;12.50;99.90;;;;;;4893720;29;20201;-94
2022/10/23 04:42:07;;;;;;;;;;;;;;;;;;;;;
2022/10/23 04:52:33;;;;;;;20.30;7.18;;;12.40;99.90;;;;;;4748757;29;20220;-95
2022/10/23 04:55:52;;;;;;;;;;;;;;;;;;;;;
2022/10/23 05:09:26;;;;;;;13.93;6.38;;;12.80;99.90;;;;;;4826496;29;20225;-94
2022/10/23 05:13:22;;;;;;;;;;;;;;;;;;;;;
2022/10/23 05:28:55;;;;;;;12.93;6.28;;;12.30;99.90;;;;;;4739776;30;20302;-93
2022/10/23 05:35:17;;;;;;;;;;;;;;;;;;;;;
2022/10/23 05:37:59;;;;;;;;;;;;;;;;;;;;;
2022/10/23 05:40:51;;;;;;;18.40;7.43;;;13.20;99.90;;;;;;4955157;29;20240;-93
2022/10/23 05:43:30;;;;;;;15.05;6.90;;;12.50;99.90;;;;;;4959582;29;20205;-93
2022/10/23 05:49:58;;;;;;;17.23;6.97;;;12.50;99.90;;;;;;4951203;29;20245;-89
2022/10/23 05:52:24;;;;;;;15.10;6.85;;;12.00;99.90;;;;;;4909295;29;20187;-89
2022/10/23 05:54:51;;;;;;;19.52;7.32;;;12.30;99.90;;;;;;4926831;28;20183;-89
2022/10/23 05:57:17;;;;;;;14.10;7.25;;;12.30;99.90;;;;;;4944399;29;20195;-89
2022/10/23 05:59:44;;;;;;;21.33;7.32;;;12.50;99.90;;;;;;4942698;28;20198;-89
2022/10/23 06:02:09;;;;;;;21.63;8.20;;;12.40;99.90;;;;;;4945693;29;20681;-91
2022/10/23 06:04:36;;;;;;;18.27;7.38;;;12.40;99.90;;;;;;4947256;28;20196;-87
2022/10/23 06:07:04;;;;;;;14.70;6.43;;;12.50;99.90;;;;;;4941100;29;20179;-87
2022/10/23 06:09:35;;;;;;;21.35;8.20;;;12.50;99.90;;;;;;4934619;28;20183;-87
2022/10/23 06:12:01;;;;;;;16.98;6.75;;;12.50;99.90;;;;;;4943269;28;20234;-88
2022/10/23 06:14:27;;;;;;;15.75;6.75;;;12.50;99.90;;;;;;4934193;29;20276;-88
2022/10/23 06:16:54;;;;;;;18.52;6.63;;;;;;;;;;4936070;28;20206;-90
2022/10/23 06:19:22;;;;;;;21.23;7.32;;;12.50;99.90;;;;;;4953670;28;20636;-89
2022/10/23 06:21:52;;;;;;;16.90;6.00;;;14.60;99.90;;;;;;4926733;28;20214;-90
2022/10/23 06:24:18;;;;;;;15.73;6.35;;;12.60;99.90;;;;;;4933539;29;20194;-89
2022/10/23 06:26:44;;;;;;;12.93;6.85;;;12.60;99.90;;;;;;4923578;29;20195;-89
2022/10/23 06:29:10;;;;;;;16.35;7.22;;;12.60;99.90;;;;;;4942771;28;20179;-90
2022/10/23 06:31:35;;;;;;;17.55;7.70;;;12.60;99.90;;;;;;4929088;28;20660;-91
2022/10/23 06:34:01;;;;;;;15.52;7.25;;;12.60;99.90;;;;;;4945591;28;20661;-91
2022/10/23 06:36:27;;;;;;;18.50;7.43;;;12.60;99.90;;;;;;4963532;28;20195;-90
2022/10/23 06:38:55;;;;;;;12.43;6.18;;;12.40;99.90;;;;;;4944292;28;20545;-91
2022/10/23 06:41:21;;;;;;;20.58;8.10;;;12.60;99.90;;;;;;4929471;29;20224;-90
2022/10/23 06:43:48;;;;;;;17.33;7.00;;;12.60;99.90;;;;;;4953480;29;20193;-89
2022/10/23 06:46:16;;;;;;;17.60;7.45;;;12.60;99.90;;;;;;4969110;28;20174;-89
2022/10/23 06:48:42;;;;;;;16.63;6.78;;;12.60;99.90;;;;;;4971218;28;20273;-90
2022/10/23 06:51:11;;;;;;;21.77;6.65;;;12.60;99.90;;;;;;4972766;28;20178;-87
2022/10/23 06:53:37;;;;;;;20.60;7.18;;;12.60;99.90;;;;;;4975569;28;20277;-91
2022/10/23 06:56:06;;;;;;;22.45;7.40;;;12.70;99.90;;;;;;4944460;28;20659;-88
2022/10/23 06:58:34;;;;;;;21.90;8.07;;;12.70;99.90;;;;;;4941545;29;20183;-90
2022/10/23 07:01:01;;;;;;;18.80;7.30;;;12.70;99.90;;;;;;4933992;29;20628;-90
2022/10/23 07:03:27;;;;;;;15.50;6.30;;;12.80;99.90;;;;;;4924391;28;20226;-92
2022/10/23 07:05:54;;;;;;;21.48;7.07;;;12.80;99.90;;;;;;4937304;28;20202;-90
2022/10/23 07:08:22;;;;;;;16.13;6.82;;;12.70;99.90;;;;;;4958689;28;20179;-92
2022/10/23 07:10:48;;;;;;;18.15;7.68;;;12.80;99.90;;;;;;4935376;29;20188;-91
2022/10/23 07:13:16;;;;;;;18.88;8.07;;;12.80;99.90;;;;;;4919079;28;20195;-94
2022/10/23 07:19:05;;;;;;;18.35;6.22;;;13.20;99.90;;;;;;4956811;29;20252;-92
2022/10/23 07:24:35;;;;;;;20.70;9.02;;;13.10;99.90;;;;;;4948953;28;20710;-91
2022/10/23 07:27:11;;;;;;;15.40;6.97;;;13.60;99.90;;;;;;4976051;28;20170;-90
2022/10/23 07:29:40;;;;;;;17.40;7.70;;;13.30;99.90;;;;;;4957452;28;20257;-93
2022/10/23 07:32:09;;;;;;;21.77;8.10;;;13.40;99.90;;;;;;4927879;28;20202;-93
2022/10/23 07:34:40;;;;;;;14.82;7.13;;;13.40;99.90;;;;;;4959083;28;20175;-91
2022/10/23 07:37:14;;;;;;;15.90;6.68;;;13.50;99.90;;;;;;4943181;28;20203;-93
2022/10/23 07:42:33;;;;;;;17.52;6.57;;;13.90;99.90;;;;;;4981090;28;20212;-93
2022/10/23 07:45:11;;;;;;;20.42;8.15;;;13.80;99.90;;;;;;4975228;28;20190;-93
2022/10/23 07:48:00;;;;;;;14.45;7.03;;;13.80;99.90;;;;;;4973934;28;20560;-96
2022/10/23 07:50:29;;;;;;;15.23;7.63;;;13.60;99.90;;;;;;4934405;29;20685;-94
2022/10/23 07:53:13;;;;;;;17.98;7.00;;;13.00;99.90;;;;;;4910003;29;20209;-94
2022/10/23 07:55:59;;;;;;;19.38;7.70;;;13.10;99.90;;;;;;4940557;29;20195;-90
2022/10/23 07:58:47;;;;;;;17.40;7.53;;;12.20;99.90;;;;;;4936140;29;20180;-91
2022/10/23 08:01:27;;;;;;;15.45;8.50;;;11.70;99.90;;;;;;4934797;29;20715;-92
2022/10/23 08:04:23;;;;;;;16.13;6.85;;;13.30;99.90;;;;;;4925471;29;20208;-93
2022/10/23 08:07:00;;;;;;;15.27;7.85;;;13.80;99.90;;;;;;4907959;29;20241;-93
2022/10/23 08:09:37;;;;;;;14.70;7.60;;;13.40;99.90;;;;;;4924315;29;20199;-91
2022/10/23 08:12:18;;;;;;;14.77;6.65;;;13.60;99.90;;;;;;4932338;29;20186;-91
2022/10/23 08:14:45;;;;;;;15.68;7.53;;;13.10;99.90;;;;;;4954217;29;20183;-92
2022/10/23 08:17:11;;;;;;;14.10;7.20;;;13.40;99.90;;;;;;4935825;29;20194;-90
2022/10/23 08:19:48;;;;;;;15.20;6.93;;;13.90;99.90;;;;;;4959322;29;20167;-91
2022/10/23 08:22:14;;;;;;;18.73;7.25;;;;;;;;;;4946189;29;20218;-90
2022/10/23 08:24:42;;;;;;;17.90;7.07;;;13.40;99.90;;;;;;4948949;29;20207;-90
2022/10/23 08:27:15;;;;;;;14.27;6.82;;;13.40;99.90;;;;;;4952324;29;20175;-91
2022/10/23 08:29:46;;;;;;;17.58;7.75;;;13.50;99.90;;;;;;4952451;29;20179;-90
2022/10/23 08:32:15;;;;;;;13.48;6.40;;;13.60;99.90;;;;;;4934766;29;20178;-89
2022/10/23 08:34:50;;;;;;;;;;;;;;;;;;;;;
2022/10/23 08:37:30;;;;;;;;;;;;;;;;;;;;;
2022/10/23 08:40:05;;;;;;;13.63;6.75;;;14.20;99.90;;;;;;4962529;29;20348;-91
2022/10/23 08:42:39;;;;;;;14.70;6.53;;;13.70;99.90;;;;;;4931117;29;20203;-91
2022/10/23 08:45:27;;;;;;;13.15;7.22;;;13.50;99.90;;;;;;4962526;29;20180;-92
2022/10/23 08:48:00;;;;;;;18.00;7.63;;;13.60;99.90;;;;;;4959039;29;20180;-90
2022/10/23 08:50:39;;;;;;;13.60;6.78;;;13.70;99.90;;;;;;4957586;29;20246;-95
2022/10/23 08:53:23;;;;;;;23.10;8.35;;;13.70;99.90;;;;;;4954730;29;20186;-93
2022/10/23 08:56:13;;;;;;;14.25;6.40;;;14.60;99.90;;;;;;4958715;29;20270;-90
2022/10/23 08:58:46;;;;;;;20.30;7.93;;;13.20;99.90;;;;;;4956185;29;20219;-93
2022/10/23 09:01:38;;;;;;;13.35;6.72;;;14.80;99.90;;;;;;4951641;29;20214;-96
2022/10/23 09:04:05;;;;;;;14.98;6.70;;;14.10;99.90;;;;;;4954729;29;20179;-90
2022/10/23 09:06:49;;;;;;;14.65;6.25;;;14.20;99.90;;;;;;4945266;29;20191;-94
2022/10/23 09:09:59;;;;;;;11.35;6.00;;;14.30;99.90;;;;;;4959010;29;20175;-93
2022/10/23 09:12:38;;;;;;;13.75;7.20;;;14.40;99.90;;;;;;4953958;29;20515;-96
2022/10/23 09:15:29;;;;;;;12.05;6.15;;;12.50;99.90;;;;;;4944743;29;20218;-95
2022/10/23 09:18:30;;;;;;;14.23;6.38;;;14.30;99.90;;;;;;4956925;29;20234;-96
2022/10/23 09:21:15;;;;;;;12.38;5.70;;;14.30;99.90;;;;;;4931993;29;20222;-96
2022/10/23 09:23:48;;;;;;;12.93;4.80;;;12.40;99.90;;;;;;4961781;29;20187;-96
2022/10/23 09:26:28;;;;;;;13.38;6.00;;;13.80;99.90;;;;;;4965553;29;20179;-94
2022/10/23 09:29:26;;;;;;;10.65;5.25;;;14.10;99.90;;;;;;4944211;29;20195;-95
2022/10/23 09:40:52;;;;;;;11.32;5.65;;;13.90;99.90;;;;;;4940862;29;20303;-94
2022/10/23 09:43:34;;;;;;;;;;;;;;;;;;;;;
2022/10/23 09:46:19;;;;;;;13.63;5.72;;;14.20;99.90;;;;;;4898313;29;20169;-93
2022/10/23 09:48:58;;;;;;;13.98;5.95;;;12.80;99.90;;;;;;4890031;29;20193;-96
2022/10/23 09:51:27;;;;;;;12.35;5.30;;;14.50;99.90;;;;;;4904719;29;20184;-96
2022/10/23 09:53:55;;;;;;;11.73;6.50;;;14.50;99.90;;;;;;4919572;29;20196;-95
2022/10/23 09:56:34;;;;;;;10.00;4.95;;;14.30;99.90;;;;;;4900545;29;20173;-93
2022/10/23 09:59:04;;;;;;;13.65;5.50;;;14.40;99.90;;;;;;4899214;29;20537;-93
2022/10/23 10:01:46;;;;;;;11.73;5.97;;;14.50;99.90;;;;;;4898456;29;20290;-94
2022/10/23 10:04:11;;;;;;;11.85;5.35;;;14.50;99.90;;;;;;4920688;29;20197;-96
2022/10/23 10:06:47;;;;;;;12.02;6.00;;;14.70;99.90;;;;;;4892495;29;20232;-94
2022/10/23 10:09:17;;;;;;;11.00;5.35;;;14.80;99.90;;;;;;4917393;29;20177;-95
2022/10/23 10:11:51;;;;;;;9.30;4.63;;;14.60;99.90;;;;;;4914855;29;20709;-94
2022/10/23 10:14:26;;;;;;;9.93;4.68;;;14.60;99.90;;;;;;4920033;29;20176;-90
2022/10/23 10:17:08;;;;;;;8.05;4.95;;;14.90;99.90;;;;;;4904788;29;20192;-95
2022/10/23 10:19:37;;;;;;;7.55;4.22;;;14.80;99.90;;;;;;4917963;29;20204;-96
2022/10/23 10:22:33;;;;;;;10.60;5.30;;;14.20;99.90;;;;;;4904167;29;20221;-89
2022/10/23 10:25:02;;;;;;;6.78;4.10;;;14.90;99.90;;;;;;4899156;29;20248;-96
2022/10/23 10:28:11;;;;;;;6.35;3.83;;;15.40;99.90;;;;;;4923747;29;20200;-96
2022/10/23 10:31:05;;;;;;;12.02;5.07;;;14.90;99.90;;;;;;4965581;23;20224;-95
2022/10/23 10:33:49;;;;;;;9.50;4.07;;;15.30;99.90;;;;;;4925902;29;20180;-95
2022/10/23 10:39:27;;;;;;;5.82;3.88;;;15.10;99.90;;;;;;2188873;23;20430;-96
2022/10/23 10:42:15;;;;;;;9.15;4.50;;;15.10;99.90;;;;;;4921853;23;20258;-94
2022/10/23 10:45:00;;;;;;;;;;;;;;;;;;;;;
2022/10/23 10:48:02;;;;;;;7.60;4.20;;;15.10;99.90;;;;;;4928353;29;20211;-93
2022/10/23 10:50:53;;;;;;;11.45;4.18;;;15.20;99.90;;;;;;4935311;29;20172;-95
2022/10/23 10:54:08;;;;;;;6.63;4.38;;;15.10;99.90;;;;;;4933111;29;20165;-95
2022/10/23 11:05:36;;;;;;;7.88;4.07;;;15.10;99.90;;;;;;5205433;23;20236;-96
2022/10/23 11:11:42;;;;;;;7.50;3.67;;;15.40;99.90;;;;;;5453374;23;20238;-96
2022/10/23 11:14:38;;;;;;;7.75;3.80;;;15.00;99.90;;;;;;5096608;23;20347;-96
2022/10/23 11:17:51;;;;;;;6.03;3.95;;;14.90;99.90;;;;;;5041939;23;20258;-95
2022/10/23 11:20:40;;;;;;;4.28;3.05;;;15.20;99.90;;;;;;5513359;23;20235;-95
2022/10/23 11:23:24;;;;;;;;;;;;;;;;;;;;;
2022/10/23 11:26:03;;;;;;;;;;;;;;;;;;;;;
2022/10/23 11:34:31;;;;;;;;;;;;;;;;;;;;;
2022/10/23 11:37:07;;;;;;;6.85;3.22;;;16.20;99.90;;;;;;4951789;29;20565;-96
2022/10/23 11:39:40;;;;;;;5.53;3.38;;;19.80;99.90;;;;;;4947118;29;20227;-93
2022/10/23 11:42:47;;;;;;;6.53;2.92;;;16.10;99.90;;;;;;4949387;29;20211;-96
2022/10/23 11:45:39;;;;;;;8.75;3.28;;;16.00;99.90;;;;;;4937011;29;20558;-94
2022/10/23 11:48:43;;;;;;;6.45;4.07;;;15.80;99.90;;;;;;4925910;29;20199;-96
2022/10/23 11:52:22;;;;;;;8.93;3.03;;;16.00;99.90;;;;;;4946451;29;20195;-94
2022/10/23 11:55:19;;;;;;;3.72;2.88;;;16.00;99.90;;;;;;4888683;29;20197;-96
2022/10/23 11:58:30;;;;;;;3.95;2.20;;;15.00;99.90;;;;;;4921733;29;20248;-96
2022/10/23 12:01:45;;;;;;;4.80;2.47;;;16.10;99.90;;;;;;4934903;29;20211;-96
2022/10/23 12:08:27;;;;;;;3.10;2.58;;;17.40;99.90;;;;;;5061806;23;20251;-96
2022/10/23 12:12:06;;;;;;;5.28;2.70;;;16.30;99.90;;;;;;4912299;29;20192;-96
2022/10/23 12:14:54;;;;;;;4.85;2.63;;;16.60;99.90;;;;;;4892245;29;20189;-96
2022/10/23 12:17:22;;;;;;;3.42;2.17;;;16.20;99.90;;;;;;4928510;29;20168;-96
2022/10/23 12:20:28;;;;;;;4.32;3.03;;;15.90;99.90;;;;;;4922196;29;20195;-96
2022/10/23 12:23:29;;;;;;;3.55;2.45;;;15.90;99.90;;;;;;4923318;29;20224;-96
2022/10/23 12:26:09;;;;;;;5.22;2.88;;;15.90;99.90;;;;;;4911983;29;20172;-96
2022/10/23 12:29:06;;;;;;;;;;;;;;;;;;;;;
2022/10/23 12:31:56;;;;;;;7.00;3.05;;;16.00;99.90;;;;;;4941166;29;20173;-95
2022/10/23 12:34:51;;;;;;;;;;;;;;;;;;;;;
2022/10/23 12:37:40;;;;;;;8.77;3.05;;;16.20;99.90;;;;;;4937337;29;20192;-95
2022/10/23 12:40:09;;;;;;;5.35;3.08;;;15.90;99.90;;;;;;4902544;29;20188;-96
2022/10/23 12:42:56;;;;;;;4.72;2.72;;;16.10;99.90;;;;;;4910819;29;20267;-96
2022/10/23 12:45:46;;;;;;;4.60;3.00;;;15.70;99.90;;;;;;4889937;29;20219;-95
2022/10/23 12:48:26;;;;;;;4.53;2.50;;;16.00;99.90;;;;;;4904342;29;20185;-96
2022/10/23 12:51:13;;;;;;;7.63;3.30;;;17.00;99.90;;;;;;4902367;29;20275;-95
2022/10/23 12:53:42;;;;;;;5.78;3.92;;;16.90;99.90;;;;;;4901890;29;20204;-95
2022/10/23 12:56:20;;;;;;;5.07;3.17;;;16.40;99.90;;;;;;4903286;29;20276;-96
2022/10/23 12:58:59;;;;;;;5.40;3.38;;;16.70;99.90;;;;;;4903165;29;20630;-95
2022/10/23 13:01:41;;;;;;;7.35;3.40;;;17.10;99.90;;;;;;4903590;29;20725;-96
2022/10/23 13:04:19;;;;;;;4.50;3.15;;;17.50;99.90;;;;;;4903532;29;20188;-96
2022/10/23 13:07:08;;;;;;;7.43;3.50;;;17.10;99.90;;;;;;4903065;29;20184;-95
2022/10/23 13:09:40;;;;;;;10.05;3.83;;;16.90;99.90;;;;;;4903456;29;20188;-95
2022/10/23 13:12:23;;;;;;;;;;;;;;;;;;;;;
2022/10/23 13:15:20;;;;;;;5.85;2.88;;;17.70;99.90;;;;;;4919934;29;20172;-96
2022/10/23 13:17:54;;;;;;;4.90;2.58;;;18.30;99.90;;;;;;4903160;29;20211;-94
2022/10/23 13:20:25;;;;;;;3.33;2.05;;;17.80;99.90;;;;;;4902544;29;20231;-95
2022/10/23 13:23:13;;;;;;;4.20;2.75;;;17.00;99.90;;;;;;4921992;29;20287;-93
2022/10/23 13:25:39;;;;;;;6.50;3.78;;;16.70;99.90;;;;;;4904774;29;20232;-93
2022/10/23 13:28:14;;;;;;;4.80;2.63;;;16.70;99.90;;;;;;4906068;29;20172;-96
2022/10/23 13:31:06;;;;;;;6.15;3.22;;;16.90;99.90;;;;;;4920930;29;20203;-96
2022/10/23 13:33:40;;;;;;;5.45;2.85;;;15.80;99.90;;;;;;4932652;29;20717;-93
2022/10/23 13:43:37;;;;;;;6.43;3.15;;;16.60;99.90;;;;;;4871726;29;20218;-96
2022/10/23 13:46:51;;;;;;;5.43;3.15;;;17.40;99.90;;;;;;4933513;29;20199;-94
2022/10/23 13:49:47;;;;;;;;;;;;;;;;;;;;;
2022/10/23 13:52:39;;;;;;;7.18;3.38;;;17.00;99.90;;;;;;4932203;29;20219;-94
2022/10/23 13:55:19;;;;;;;9.27;3.47;;;16.50;99.90;;;;;;4908942;29;20184;-95
2022/10/23 13:58:02;;;;;;;;;;;;;;;;;;;;;
2022/10/23 14:03:51;;;;;;;7.40;4.03;;;16.80;99.90;;;;;;4923781;29;20176;-93
2022/10/23 14:06:23;;;;;;;8.20;4.13;;;16.10;99.90;;;;;;4904049;29;20196;-92
2022/10/23 14:09:07;;;;;;;;;;;;;;;;;;;;;
2022/10/23 14:11:51;;;;;;;;;;;;;;;;;;;;;
2022/10/23 14:14:40;;;;;;;10.10;4.10;;;14.80;99.90;;;;;;4903021;29;20268;-94
2022/10/23 14:17:10;;;;;;;7.95;4.60;;;15.50;99.90;;;;;;4879884;29;20169;-92
2022/10/23 14:19:41;;;;;;;16.70;4.45;;;15.70;99.90;;;;;;4908884;29;20162;-93
2022/10/23 14:22:10;;;;;;;8.57;4.22;;;15.80;99.90;;;;;;4924104;29;20193;-92
2022/10/23 14:24:39;;;;;;;8.13;4.03;;;15.50;99.90;;;;;;4924321;29;20166;-93
2022/10/23 14:30:38;;;;;;;11.05;4.40;;;15.50;99.90;;;;;;4924432;29;20181;-93
2022/10/23 14:35:50;;;;;;;;;;;;;;;;;;;;;
2022/10/23 14:38:28;;;;;;;12.63;5.22;;;15.60;99.90;;;;;;4958575;28;20191;-88
2022/10/23 14:43:41;;;;;;;8.75;4.70;;;15.80;99.90;;;;;;4946201;23;20231;-93
2022/10/23 14:46:46;;;;;;;10.52;5.25;;;13.20;99.90;;;;;;4911693;29;20204;-92
2022/10/23 14:49:16;;;;;;;7.25;4.90;;;15.00;99.90;;;;;;4924768;29;20266;-92
2022/10/23 14:51:46;;;;;;;10.23;5.07;;;15.40;99.90;;;;;;4886102;29;20672;-93
2022/10/23 14:54:30;;;;;;;9.35;4.25;;;15.50;99.90;;;;;;4907567;29;20224;-93
2022/10/23 14:58:20;;;;;;;;;;;;;;;;;;;;;
2022/10/23 15:01:05;;;;;;;7.90;4.53;;;14.80;99.90;;;;;;4918614;29;20214;-93
2022/10/23 15:07:36;;;;;;;9.88;5.75;;;15.30;99.90;;;;;;4908740;29;20193;-92
2022/10/23 15:10:31;;;;;;;10.52;5.55;;;15.00;99.90;;;;;;4877317;29;20200;-91
2022/10/23 15:13:10;;;;;;;9.05;5.05;;;14.90;99.90;;;;;;4904081;29;20201;-89
2022/10/23 15:15:39;;;;;;;10.80;5.38;;;14.90;99.90;;;;;;4905893;29;20184;-93
2022/10/23 15:18:29;;;;;;;8.38;5.65;;;15.00;99.90;;;;;;4918359;29;20181;-92
2022/10/23 15:20:59;;;;;;;12.73;5.45;;;14.90;99.90;;;;;;4918436;29;20224;-92
2022/10/23 15:23:29;;;;;;;10.57;5.32;;;14.60;99.90;;;;;;4903787;29;20258;-93
2022/10/23 15:26:19;;;;;;;11.35;5.90;;;14.50;99.90;;;;;;4903697;29;20181;-93
2022/10/23 15:28:59;;;;;;;12.30;5.57;;;14.50;99.90;;;;;;4919523;29;20194;-92
2022/10/23 15:31:39;;;;;;;9.68;5.65;;;14.20;99.90;;;;;;4910796;29;20164;-95
2022/10/23 15:34:26;;;;;;;9.40;5.10;;;14.90;99.90;;;;;;4925023;29;20181;-92
2022/10/23 15:36:55;;;;;;;8.35;5.45;;;14.10;99.90;;;;;;4917028;29;20228;-91
2022/10/23 15:39:36;;;;;;;;;;;;;;;;;;;;;
2022/10/23 15:42:08;;;;;;;12.32;6.72;;;13.60;99.90;;;;;;4937372;29;20239;-94
2022/10/23 15:44:38;;;;;;;12.63;7.28;;;13.70;99.90;;;;;;4924086;29;20300;-93
2022/10/23 15:50:19;;;;;;;;;;;;;;;;;;;;;
2022/10/23 16:10:25;;;;;;;;;;;;;;;;;;;;;
2022/10/23 16:13:18;;;;;;;12.65;7.15;;;13.60;99.90;;;;;;4900759;29;20623;-91
2022/10/23 16:16:34;;;;;;;16.17;8.40;;;13.60;99.90;;;;;;4897773;29;20205;-92
2022/10/23 16:19:17;;;;;;;14.70;8.35;;;13.60;99.90;;;;;;4899352;29;20173;-92
2022/10/23 16:22:33;;;;;;;;;;;;;;;;;;;;;
2022/10/23 16:28:42;;;;;;;;;;;;;;;;;;;;;
2022/10/23 16:31:19;;;;;;;16.10;8.52;;;13.40;99.90;;;;;;4879136;29;20189;-92
2022/10/23 16:34:04;;;;;;;20.98;10.50;;;12.20;99.90;;;;;;4880494;29;20170;-92
2022/10/23 16:36:52;;;;;;;13.55;8.68;;;13.20;99.90;;;;;;4879380;29;20197;-92
2022/10/23 16:39:29;;;;;;;20.35;8.35;;;13.70;99.90;;;;;;4879945;29;20229;-95
2022/10/23 16:42:15;;;;;;;13.75;7.22;;;13.10;99.90;;;;;;4845104;29;20226;-91
2022/10/23 16:48:41;;;;;;;16.85;7.00;;;13.40;99.90;;;;;;4861266;29;20226;-92
2022/10/23 16:51:33;;;;;;;12.32;7.13;;;10.80;99.90;;;;;;4857804;29;20281;-91
2022/10/23 16:57:39;;;;;;;8.82;5.50;;;12.80;99.90;;;;;;4877026;29;20203;-92
2022/10/23 17:00:34;;;;;;;;;;;;;;;;;;;;;
2022/10/23 17:03:46;;;;;;;;;;;;;;;;;;;;;
2022/10/23 17:06:43;;;;;;;21.55;8.73;;;12.50;99.90;;;;;;4898429;29;20204;-91
2022/10/23 17:09:45;;;;;;;;;;;;;;;;;;;;;
2022/10/23 17:16:02;;;;;;;;;;;;;;;;;;;;;
2022/10/23 17:19:27;;;;;;;18.05;9.55;;;12.80;99.90;;;;;;4862752;29;20183;-91
2022/10/23 17:22:09;;;;;;;;;;;;;;;;;;;;;
2022/10/23 17:24:51;;;;;;;;;;;;;;;;;;;;;
2022/10/23 17:27:46;;;;;;;22.75;9.80;;;12.80;99.90;;;;;;4863162;29;20191;-96
2022/10/23 17:30:46;;;;;;;;;;;;;;;;;;;;;
2022/10/23 17:37:11;;;;;;;;;;;;;;;;;;;;;
2022/10/23 17:40:24;;;;;;;;;;;;;;;;;;;;;
2022/10/23 17:43:37;;;;;;;16.90;10.77;;;12.50;99.90;;;;;;4897479;29;20240;-94
2022/10/23 17:50:11;;;;;;;24.50;11.73;;;13.10;99.90;;;;;;4885662;29;20208;-93
2022/10/23 18:07:28;;;;;;;;;;;;;;;;;;;;;
2022/10/23 18:09:59;;;;;;;23.40;12.25;;;12.50;99.90;;;;;;4739893;30;20272;-90